Buckland Airport Buckland US
ICAO: PABL
IATA:
Category: Medium
Scheduled Services:

Elevation: 31 ft
TransAlt. 18000 ft.

Airport Communications:
AWOS 3:135.15
ANCHORAGE APP/DEP:119.2
CTAF:122.9
KOTZEBUE RDO:122.3

PABL Zoom In..

If you have problems with the map follow the link
https://www.worldairports.se/pages/airport.php?
ICAO=PABL

Runways:

(A) RW 11 length 3200 ft width 75 ft
---- / hdg 107

(B) RW 29 length 3200 ft width 75 ft
---- / hdg 287

Location; PABL
Day. 26 / Time. 00.56 Zulu
* Altimeter: 30.31
* Temperature: -24° c. 11.2°f.
* Wind from: 300° Speed 12 kn.
Dewpoint: -27° c.
Visibility: 10 Statute Miles.
Clouds: Clear (automated report).

PABL 260056Z AUTO 30012KT 10SM CLR M24/M27 A3031 RMK AO2 SLP268 T12391272 FZRANO


Wind From 300°
Speed 12 kn.

 
 
jpsmedia worldairports.se 2020   terms of use